sensor_id;sensor_type;location;lat;lon;timestamp;temperature;humidity
4487;DHT22;2256;48.740;9.106;2022-08-25T00:01:22;19.00;99.90
4487;DHT22;2256;48.740;9.106;2022-08-25T00:03:49;19.00;99.90
4487;DHT22;2256;48.740;9.106;2022-08-25T00:06:18;19.00;99.90
4487;DHT22;2256;48.740;9.106;2022-08-25T00:08:45;18.90;99.90
4487;DHT22;2256;48.740;9.106;2022-08-25T00:11:16;18.90;99.90
4487;DHT22;2256;48.740;9.106;2022-08-25T00:13:47;18.90;99.90
4487;DHT22;2256;48.740;9.106;2022-08-25T00:16:16;18.90;99.90
4487;DHT22;2256;48.740;9.106;2022-08-25T00:18:45;18.90;99.90
4487;DHT22;2256;48.740;9.106;2022-08-25T00:21:13;18.90;99.90
4487;DHT22;2256;48.740;9.106;2022-08-25T00:23:40;18.80;99.90
4487;DHT22;2256;48.740;9.106;2022-08-25T00:26:08;18.80;99.90
4487;DHT22;2256;48.740;9.106;2022-08-25T00:28:35;18.80;99.90
4487;DHT22;2256;48.740;9.106;2022-08-25T00:31:04;18.90;99.90
4487;DHT22;2256;48.740;9.106;2022-08-25T00:33:32;18.90;99.90
4487;DHT22;2256;48.740;9.106;2022-08-25T00:35:59;18.90;99.90
4487;DHT22;2256;48.740;9.106;2022-08-25T00:38:26;19.00;99.90
4487;DHT22;2256;48.740;9.106;2022-08-25T00:40:53;19.00;99.90
4487;DHT22;2256;48.740;9.106;2022-08-25T00:43:33;19.10;99.90
4487;DHT22;2256;48.740;9.106;2022-08-25T00:46:01;19.10;99.90
4487;DHT22;2256;48.740;9.106;2022-08-25T00:48:29;19.10;99.90
4487;DHT22;2256;48.740;9.106;2022-08-25T00:50:55;19.00;99.90
4487;DHT22;2256;48.740;9.106;2022-08-25T00:53:22;19.00;99.90
4487;DHT22;2256;48.740;9.106;2022-08-25T00:55:49;19.00;99.90
4487;DHT22;2256;48.740;9.106;2022-08-25T00:58:20;19.00;99.90
4487;DHT22;2256;48.740;9.106;2022-08-25T01:00:51;19.10;99.90
4487;DHT22;2256;48.740;9.106;2022-08-25T01:03:21;19.00;99.90
4487;DHT22;2256;48.740;9.106;2022-08-25T01:05:50;18.80;99.90
4487;DHT22;2256;48.740;9.106;2022-08-25T01:08:17;18.80;99.90
4487;DHT22;2256;48.740;9.106;2022-08-25T01:10:46;18.70;99.90
4487;DHT22;2256;48.740;9.106;2022-08-25T01:13:15;18.70;99.90
4487;DHT22;2256;48.740;9.106;2022-08-25T01:15:45;18.60;99.90
4487;DHT22;2256;48.740;9.106;2022-08-25T01:18:13;18.50;99.90
4487;DHT22;2256;48.740;9.106;2022-08-25T01:20:41;18.50;99.90
4487;DHT22;2256;48.740;9.106;2022-08-25T01:23:09;18.50;99.90
4487;DHT22;2256;48.740;9.106;2022-08-25T01:25:42;18.40;99.90
4487;DHT22;2256;48.740;9.106;2022-08-25T01:28:12;18.40;99.90
4487;DHT22;2256;48.740;9.106;2022-08-25T01:30:39;18.30;99.90
4487;DHT22;2256;48.740;9.106;2022-08-25T01:33:07;18.30;99.90
4487;DHT22;2256;48.740;9.106;2022-08-25T01:35:35;18.30;99.90
4487;DHT22;2256;48.740;9.106;2022-08-25T01:38:04;18.30;99.90
4487;DHT22;2256;48.740;9.106;2022-08-25T01:40:35;18.30;99.90
4487;DHT22;2256;48.740;9.106;2022-08-25T01:43:14;18.30;99.90
4487;DHT22;2256;48.740;9.106;2022-08-25T01:45:44;18.20;99.90
4487;DHT22;2256;48.740;9.106;2022-08-25T01:48:13;18.10;99.90
4487;DHT22;2256;48.740;9.106;2022-08-25T01:50:42;18.20;99.90
4487;DHT22;2256;48.740;9.106;2022-08-25T01:53:13;18.20;99.90
4487;DHT22;2256;48.740;9.106;2022-08-25T01:55:45;18.20;99.90
4487;DHT22;2256;48.740;9.106;2022-08-25T01:58:20;18.20;99.90
4487;DHT22;2256;48.740;9.106;2022-08-25T02:00:49;18.20;99.90
4487;DHT22;2256;48.740;9.106;2022-08-25T02:03:19;18.10;99.90
4487;DHT22;2256;48.740;9.106;2022-08-25T02:05:46;18.10;99.90
4487;DHT22;2256;48.740;9.106;2022-08-25T02:08:13;18.10;99.90
4487;DHT22;2256;48.740;9.106;2022-08-25T02:10:40;18.00;99.90
4487;DHT22;2256;48.740;9.106;2022-08-25T02:13:09;18.00;99.90
4487;DHT22;2256;48.740;9.106;2022-08-25T02:15:39;18.00;99.90
4487;DHT22;2256;48.740;9.106;2022-08-25T02:18:08;17.90;99.90
4487;DHT22;2256;48.740;9.106;2022-08-25T02:20:35;17.80;99.90
4487;DHT22;2256;48.740;9.106;2022-08-25T02:23:03;17.70;99.90
4487;DHT22;2256;48.740;9.106;2022-08-25T02:25:30;17.60;99.90
4487;DHT22;2256;48.740;9.106;2022-08-25T02:27:57;17.60;99.90
4487;DHT22;2256;48.740;9.106;2022-08-25T02:30:25;17.60;99.90
4487;DHT22;2256;48.740;9.106;2022-08-25T02:32:52;17.60;99.90
4487;DHT22;2256;48.740;9.106;2022-08-25T02:35:19;17.60;99.90
4487;DHT22;2256;48.740;9.106;2022-08-25T02:37:46;17.60;99.90
4487;DHT22;2256;48.740;9.106;2022-08-25T02:40:13;17.60;99.90
4487;DHT22;2256;48.740;9.106;2022-08-25T02:42:40;17.50;99.90
4487;DHT22;2256;48.740;9.106;2022-08-25T02:45:07;17.40;99.90
4487;DHT22;2256;48.740;9.106;2022-08-25T02:47:35;17.40;99.90
4487;DHT22;2256;48.740;9.106;2022-08-25T02:50:03;17.40;99.90
4487;DHT22;2256;48.740;9.106;2022-08-25T02:52:30;17.30;99.90
4487;DHT22;2256;48.740;9.106;2022-08-25T02:54:56;17.20;99.90
4487;DHT22;2256;48.740;9.106;2022-08-25T02:57:23;17.10;99.90
4487;DHT22;2256;48.740;9.106;2022-08-25T02:59:50;17.10;99.90
4487;DHT22;2256;48.740;9.106;2022-08-25T03:02:17;17.20;99.90
4487;DHT22;2256;48.740;9.106;2022-08-25T03:04:45;17.10;99.90
4487;DHT22;2256;48.740;9.106;2022-08-25T03:07:12;17.20;99.90
4487;DHT22;2256;48.740;9.106;2022-08-25T03:09:39;17.10;99.90
4487;DHT22;2256;48.740;9.106;2022-08-25T03:12:06;17.00;99.90
4487;DHT22;2256;48.740;9.106;2022-08-25T03:14:34;17.00;99.90
4487;DHT22;2256;48.740;9.106;2022-08-25T03:17:01;17.00;99.90
4487;DHT22;2256;48.740;9.106;2022-08-25T03:19:28;16.90;99.90
4487;DHT22;2256;48.740;9.106;2022-08-25T03:21:56;16.80;99.90
4487;DHT22;2256;48.740;9.106;2022-08-25T03:24:24;16.80;99.90
4487;DHT22;2256;48.740;9.106;2022-08-25T03:26:52;16.80;99.90
4487;DHT22;2256;48.740;9.106;2022-08-25T03:29:18;16.80;99.90
4487;DHT22;2256;48.740;9.106;2022-08-25T03:31:45;16.80;99.90
4487;DHT22;2256;48.740;9.106;2022-08-25T03:34:12;16.80;99.90
4487;DHT22;2256;48.740;9.106;2022-08-25T03:36:41;16.80;99.90
4487;DHT22;2256;48.740;9.106;2022-08-25T03:39:10;17.00;99.90
4487;DHT22;2256;48.740;9.106;2022-08-25T03:41:38;16.90;99.90
4487;DHT22;2256;48.740;9.106;2022-08-25T03:44:06;16.90;99.90
4487;DHT22;2256;48.740;9.106;2022-08-25T03:46:37;16.90;99.90
4487;DHT22;2256;48.740;9.106;2022-08-25T03:49:05;16.90;99.90
4487;DHT22;2256;48.740;9.106;2022-08-25T03:51:34;16.80;99.90
4487;DHT22;2256;48.740;9.106;2022-08-25T03:54:03;16.80;99.90
4487;DHT22;2256;48.740;9.106;2022-08-25T03:56:31;16.70;99.90
4487;DHT22;2256;48.740;9.106;2022-08-25T03:58:58;16.60;99.90
4487;DHT22;2256;48.740;9.106;2022-08-25T04:01:25;16.50;99.90
4487;DHT22;2256;48.740;9.106;2022-08-25T04:03:52;16.60;99.90
4487;DHT22;2256;48.740;9.106;2022-08-25T04:06:19;16.60;99.90
4487;DHT22;2256;48.740;9.106;2022-08-25T04:08:46;16.60;99.90
4487;DHT22;2256;48.740;9.106;2022-08-25T04:11:16;16.60;99.90
4487;DHT22;2256;48.740;9.106;2022-08-25T04:13:45;16.50;99.90
4487;DHT22;2256;48.740;9.106;2022-08-25T04:16:13;16.40;99.90
4487;DHT22;2256;48.740;9.106;2022-08-25T04:18:41;16.40;99.90
4487;DHT22;2256;48.740;9.106;2022-08-25T04:21:09;16.30;99.90
4487;DHT22;2256;48.740;9.106;2022-08-25T04:23:36;16.30;99.90
4487;DHT22;2256;48.740;9.106;2022-08-25T04:26:08;16.40;99.90
4487;DHT22;2256;48.740;9.106;2022-08-25T04:28:35;16.50;99.90
4487;DHT22;2256;48.740;9.106;2022-08-25T04:31:06;16.60;99.90
4487;DHT22;2256;48.740;9.106;2022-08-25T04:33:33;16.50;99.90
4487;DHT22;2256;48.740;9.106;2022-08-25T04:36:00;16.50;99.90
4487;DHT22;2256;48.740;9.106;2022-08-25T04:38:27;16.60;99.90
4487;DHT22;2256;48.740;9.106;2022-08-25T04:40:56;16.60;99.90
4487;DHT22;2256;48.740;9.106;2022-08-25T04:43:24;16.60;99.90
4487;DHT22;2256;48.740;9.106;2022-08-25T04:45:52;16.60;99.90
4487;DHT22;2256;48.740;9.106;2022-08-25T04:48:21;16.40;99.90
4487;DHT22;2256;48.740;9.106;2022-08-25T04:50:48;16.40;99.90
4487;DHT22;2256;48.740;9.106;2022-08-25T04:53:16;16.40;99.90
4487;DHT22;2256;48.740;9.106;2022-08-25T04:55:45;16.40;99.90
4487;DHT22;2256;48.740;9.106;2022-08-25T04:58:13;16.50;99.90
4487;DHT22;2256;48.740;9.106;2022-08-25T05:00:40;16.50;99.90
4487;DHT22;2256;48.740;9.106;2022-08-25T05:03:08;16.50;99.90
4487;DHT22;2256;48.740;9.106;2022-08-25T05:05:37;16.50;99.90
4487;DHT22;2256;48.740;9.106;2022-08-25T05:08:04;16.50;99.90
4487;DHT22;2256;48.740;9.106;2022-08-25T05:10:31;16.50;99.90
4487;DHT22;2256;48.740;9.106;2022-08-25T05:12:58;16.40;99.90
4487;DHT22;2256;48.740;9.106;2022-08-25T05:15:25;16.50;99.90
4487;DHT22;2256;48.740;9.106;2022-08-25T05:18:10;16.50;99.90
4487;DHT22;2256;48.740;9.106;2022-08-25T05:20:38;16.50;99.90
4487;DHT22;2256;48.740;9.106;2022-08-25T05:23:05;16.50;99.90
4487;DHT22;2256;48.740;9.106;2022-08-25T05:25:32;16.60;99.90
4487;DHT22;2256;48.740;9.106;2022-08-25T05:27:58;16.60;99.90
4487;DHT22;2256;48.740;9.106;2022-08-25T05:30:25;16.60;99.90
4487;DHT22;2256;48.740;9.106;2022-08-25T05:32:52;16.80;99.90
4487;DHT22;2256;48.740;9.106;2022-08-25T05:35:19;17.00;99.90
4487;DHT22;2256;48.740;9.106;2022-08-25T05:37:47;17.10;99.90
4487;DHT22;2256;48.740;9.106;2022-08-25T05:40:14;17.30;99.90
4487;DHT22;2256;48.740;9.106;2022-08-25T05:42:41;17.60;99.90
4487;DHT22;2256;48.740;9.106;2022-08-25T05:45:08;17.90;99.90
4487;DHT22;2256;48.740;9.106;2022-08-25T05:47:35;18.20;99.90
4487;DHT22;2256;48.740;9.106;2022-08-25T05:50:02;18.50;99.90
4487;DHT22;2256;48.740;9.106;2022-08-25T05:52:29;18.80;99.90
4487;DHT22;2256;48.740;9.106;2022-08-25T05:54:57;18.80;99.90
4487;DHT22;2256;48.740;9.106;2022-08-25T05:57:24;19.00;99.90
4487;DHT22;2256;48.740;9.106;2022-08-25T05:59:51;19.10;99.90
4487;DHT22;2256;48.740;9.106;2022-08-25T06:02:18;19.20;99.90
4487;DHT22;2256;48.740;9.106;2022-08-25T06:05:03;19.10;99.90
4487;DHT22;2256;48.740;9.106;2022-08-25T06:07:30;19.20;99.90
4487;DHT22;2256;48.740;9.106;2022-08-25T06:09:59;19.30;99.90
4487;DHT22;2256;48.740;9.106;2022-08-25T06:12:25;19.30;99.90
4487;DHT22;2256;48.740;9.106;2022-08-25T06:14:52;19.40;99.90
4487;DHT22;2256;48.740;9.106;2022-08-25T06:17:19;19.50;99.90
4487;DHT22;2256;48.740;9.106;2022-08-25T06:19:47;19.50;99.90
4487;DHT22;2256;48.740;9.106;2022-08-25T06:22:13;19.60;99.90
4487;DHT22;2256;48.740;9.106;2022-08-25T06:24:40;19.80;99.90
4487;DHT22;2256;48.740;9.106;2022-08-25T06:27:08;19.90;99.90
4487;DHT22;2256;48.740;9.106;2022-08-25T06:29:35;20.10;99.90
4487;DHT22;2256;48.740;9.106;2022-08-25T06:32:02;20.30;99.90
4487;DHT22;2256;48.740;9.106;2022-08-25T06:34:29;20.70;99.90
4487;DHT22;2256;48.740;9.106;2022-08-25T06:36:56;21.50;99.90
4487;DHT22;2256;48.740;9.106;2022-08-25T06:39:22;22.90;99.90
4487;DHT22;2256;48.740;9.106;2022-08-25T06:41:51;24.20;99.90
4487;DHT22;2256;48.740;9.106;2022-08-25T06:44:19;25.50;98.10
4487;DHT22;2256;48.740;9.106;2022-08-25T06:46:46;26.60;95.30
4487;DHT22;2256;48.740;9.106;2022-08-25T06:49:13;27.10;94.00
4487;DHT22;2256;48.740;9.106;2022-08-25T06:51:40;28.00;92.90
4487;DHT22;2256;48.740;9.106;2022-08-25T06:54:08;28.80;91.10
4487;DHT22;2256;48.740;9.106;2022-08-25T06:56:38;29.70;89.70
4487;DHT22;2256;48.740;9.106;2022-08-25T06:59:06;30.50;85.90
4487;DHT22;2256;48.740;9.106;2022-08-25T07:01:35;31.00;84.20
4487;DHT22;2256;48.740;9.106;2022-08-25T07:04:04;31.30;81.80
4487;DHT22;2256;48.740;9.106;2022-08-25T07:06:32;31.80;80.90
4487;DHT22;2256;48.740;9.106;2022-08-25T07:09:00;32.30;79.80
4487;DHT22;2256;48.740;9.106;2022-08-25T07:11:27;32.50;79.30
4487;DHT22;2256;48.740;9.106;2022-08-25T07:13:59;32.80;77.10
4487;DHT22;2256;48.740;9.106;2022-08-25T07:16:27;32.60;77.00
4487;DHT22;2256;48.740;9.106;2022-08-25T07:18:55;32.30;77.80
4487;DHT22;2256;48.740;9.106;2022-08-25T07:21:22;32.10;77.90
4487;DHT22;2256;48.740;9.106;2022-08-25T07:23:49;32.30;77.60
4487;DHT22;2256;48.740;9.106;2022-08-25T07:26:18;32.50;76.70
4487;DHT22;2256;48.740;9.106;2022-08-25T07:28:45;31.90;78.00
4487;DHT22;2256;48.740;9.106;2022-08-25T07:31:13;31.80;78.10
4487;DHT22;2256;48.740;9.106;2022-08-25T07:33:40;31.90;78.30
4487;DHT22;2256;48.740;9.106;2022-08-25T07:36:29;32.20;77.20
4487;DHT22;2256;48.740;9.106;2022-08-25T07:38:56;32.50;76.20
4487;DHT22;2256;48.740;9.106;2022-08-25T07:41:24;33.00;75.50
4487;DHT22;2256;48.740;9.106;2022-08-25T07:43:51;33.30;73.50
4487;DHT22;2256;48.740;9.106;2022-08-25T07:46:18;33.10;73.90
4487;DHT22;2256;48.740;9.106;2022-08-25T07:48:44;32.70;75.00
4487;DHT22;2256;48.740;9.106;2022-08-25T07:51:12;32.10;76.20
4487;DHT22;2256;48.740;9.106;2022-08-25T07:53:41;32.20;75.80
4487;DHT22;2256;48.740;9.106;2022-08-25T07:56:10;32.70;76.30
4487;DHT22;2256;48.740;9.106;2022-08-25T07:58:38;32.30;75.70
4487;DHT22;2256;48.740;9.106;2022-08-25T08:01:07;31.90;76.10
4487;DHT22;2256;48.740;9.106;2022-08-25T08:03:38;32.40;75.80
4487;DHT22;2256;48.740;9.106;2022-08-25T08:06:07;32.60;75.60
4487;DHT22;2256;48.740;9.106;2022-08-25T08:08:35;32.00;75.30
4487;DHT22;2256;48.740;9.106;2022-08-25T08:11:04;31.20;77.00
4487;DHT22;2256;48.740;9.106;2022-08-25T08:13:31;30.60;78.70
4487;DHT22;2256;48.740;9.106;2022-08-25T08:15:58;29.80;79.90
4487;DHT22;2256;48.740;9.106;2022-08-25T08:18:25;29.90;80.90
4487;DHT22;2256;48.740;9.106;2022-08-25T08:20:52;30.40;79.80
4487;DHT22;2256;48.740;9.106;2022-08-25T08:23:19;30.40;79.40
4487;DHT22;2256;48.740;9.106;2022-08-25T08:25:52;30.20;79.60
4487;DHT22;2256;48.740;9.106;2022-08-25T08:28:20;30.10;80.60
4487;DHT22;2256;48.740;9.106;2022-08-25T08:30:47;30.00;80.60
4487;DHT22;2256;48.740;9.106;2022-08-25T08:33:14;30.30;80.00
4487;DHT22;2256;48.740;9.106;2022-08-25T08:35:40;30.20;79.90
4487;DHT22;2256;48.740;9.106;2022-08-25T08:38:08;30.50;79.80
4487;DHT22;2256;48.740;9.106;2022-08-25T08:40:44;30.30;80.00
4487;DHT22;2256;48.740;9.106;2022-08-25T08:43:34;29.80;80.40
4487;DHT22;2256;48.740;9.106;2022-08-25T08:46:02;29.90;81.20
4487;DHT22;2256;48.740;9.106;2022-08-25T08:48:54;30.60;79.80
4487;DHT22;2256;48.740;9.106;2022-08-25T08:51:26;31.10;77.60
4487;DHT22;2256;48.740;9.106;2022-08-25T08:53:55;31.10;77.60
4487;DHT22;2256;48.740;9.106;2022-08-25T08:56:27;31.00;77.90
4487;DHT22;2256;48.740;9.106;2022-08-25T08:58:58;31.10;77.20
4487;DHT22;2256;48.740;9.106;2022-08-25T09:01:29;31.30;77.10
4487;DHT22;2256;48.740;9.106;2022-08-25T09:04:01;30.80;77.60
4487;DHT22;2256;48.740;9.106;2022-08-25T09:06:31;30.20;78.80
4487;DHT22;2256;48.740;9.106;2022-08-25T09:09:03;30.60;78.40
4487;DHT22;2256;48.740;9.106;2022-08-25T09:11:43;30.80;78.00
4487;DHT22;2256;48.740;9.106;2022-08-25T09:14:38;30.60;78.10
4487;DHT22;2256;48.740;9.106;2022-08-25T09:17:15;31.50;76.60
4487;DHT22;2256;48.740;9.106;2022-08-25T09:20:07;32.10;75.70
4487;DHT22;2256;48.740;9.106;2022-08-25T09:22:44;32.90;73.70
4487;DHT22;2256;48.740;9.106;2022-08-25T09:25:19;32.50;73.70
4487;DHT22;2256;48.740;9.106;2022-08-25T09:27:54;32.30;74.40
4487;DHT22;2256;48.740;9.106;2022-08-25T09:30:24;31.50;75.30
4487;DHT22;2256;48.740;9.106;2022-08-25T09:32:54;31.50;76.10
4487;DHT22;2256;48.740;9.106;2022-08-25T09:35:30;31.80;75.60
4487;DHT22;2256;48.740;9.106;2022-08-25T09:37:59;32.10;75.30
4487;DHT22;2256;48.740;9.106;2022-08-25T09:40:28;32.00;75.50
4487;DHT22;2256;48.740;9.106;2022-08-25T09:42:57;32.50;74.20
4487;DHT22;2256;48.740;9.106;2022-08-25T09:45:36;33.10;72.20
4487;DHT22;2256;48.740;9.106;2022-08-25T09:48:20;33.30;71.00
4487;DHT22;2256;48.740;9.106;2022-08-25T09:50:49;32.40;71.30
4487;DHT22;2256;48.740;9.106;2022-08-25T09:53:16;31.30;73.70
4487;DHT22;2256;48.740;9.106;2022-08-25T09:55:43;29.50;78.10
4487;DHT22;2256;48.740;9.106;2022-08-25T09:58:18;29.40;78.10
4487;DHT22;2256;48.740;9.106;2022-08-25T10:01:04;29.00;78.60
4487;DHT22;2256;48.740;9.106;2022-08-25T10:03:31;28.70;80.00
4487;DHT22;2256;48.740;9.106;2022-08-25T10:06:02;28.40;80.00
4487;DHT22;2256;48.740;9.106;2022-08-25T10:08:32;28.60;80.10
4487;DHT22;2256;48.740;9.106;2022-08-25T10:11:01;28.40;80.60
4487;DHT22;2256;48.740;9.106;2022-08-25T10:13:38;28.60;79.60
4487;DHT22;2256;48.740;9.106;2022-08-25T10:16:10;29.00;79.50
4487;DHT22;2256;48.740;9.106;2022-08-25T10:18:38;28.30;81.30
4487;DHT22;2256;48.740;9.106;2022-08-25T10:21:09;28.50;80.60
4487;DHT22;2256;48.740;9.106;2022-08-25T10:23:39;28.20;81.20
4487;DHT22;2256;48.740;9.106;2022-08-25T10:26:12;27.70;82.70
4487;DHT22;2256;48.740;9.106;2022-08-25T10:28:49;27.60;82.60
4487;DHT22;2256;48.740;9.106;2022-08-25T10:31:25;27.90;82.40
4487;DHT22;2256;48.740;9.106;2022-08-25T10:34:06;28.10;81.80
4487;DHT22;2256;48.740;9.106;2022-08-25T10:36:42;28.10;80.80
4487;DHT22;2256;48.740;9.106;2022-08-25T10:39:23;28.10;81.40
4487;DHT22;2256;48.740;9.106;2022-08-25T10:42:00;28.20;81.60
4487;DHT22;2256;48.740;9.106;2022-08-25T10:44:33;28.50;80.90
4487;DHT22;2256;48.740;9.106;2022-08-25T10:47:51;28.60;81.00
4487;DHT22;2256;48.740;9.106;2022-08-25T10:50:28;28.20;79.70
4487;DHT22;2256;48.740;9.106;2022-08-25T10:53:22;28.10;80.50
4487;DHT22;2256;48.740;9.106;2022-08-25T10:55:59;27.70;80.40
4487;DHT22;2256;48.740;9.106;2022-08-25T11:01:23;27.80;80.20
4487;DHT22;2256;48.740;9.106;2022-08-25T11:03:58;28.00;78.80
4487;DHT22;2256;48.740;9.106;2022-08-25T11:06:31;28.20;77.80
4487;DHT22;2256;48.740;9.106;2022-08-25T11:09:05;28.30;77.40
4487;DHT22;2256;48.740;9.106;2022-08-25T11:11:36;28.40;78.20
4487;DHT22;2256;48.740;9.106;2022-08-25T11:14:07;28.60;79.30
4487;DHT22;2256;48.740;9.106;2022-08-25T11:16:38;28.70;79.00
4487;DHT22;2256;48.740;9.106;2022-08-25T11:19:15;29.10;76.20
4487;DHT22;2256;48.740;9.106;2022-08-25T11:21:48;29.30;74.30
4487;DHT22;2256;48.740;9.106;2022-08-25T11:24:40;29.40;75.00
4487;DHT22;2256;48.740;9.106;2022-08-25T11:27:12;29.20;74.10
4487;DHT22;2256;48.740;9.106;2022-08-25T11:29:40;29.10;75.60
4487;DHT22;2256;48.740;9.106;2022-08-25T11:32:09;29.20;76.30
4487;DHT22;2256;48.740;9.106;2022-08-25T11:34:38;29.40;75.40
4487;DHT22;2256;48.740;9.106;2022-08-25T11:37:11;28.70;76.70
4487;DHT22;2256;48.740;9.106;2022-08-25T11:39:56;28.30;77.90
4487;DHT22;2256;48.740;9.106;2022-08-25T11:42:32;28.30;79.30
4487;DHT22;2256;48.740;9.106;2022-08-25T11:45:07;28.50;76.20
4487;DHT22;2256;48.740;9.106;2022-08-25T11:48:05;28.70;75.60
4487;DHT22;2256;48.740;9.106;2022-08-25T11:50:55;28.70;75.80
4487;DHT22;2256;48.740;9.106;2022-08-25T11:53:26;28.90;76.40
4487;DHT22;2256;48.740;9.106;2022-08-25T11:55:55;29.20;74.70
4487;DHT22;2256;48.740;9.106;2022-08-25T11:58:41;29.50;74.10
4487;DHT22;2256;48.740;9.106;2022-08-25T12:01:11;29.80;74.30
4487;DHT22;2256;48.740;9.106;2022-08-25T12:04:12;29.90;74.40
4487;DHT22;2256;48.740;9.106;2022-08-25T12:13:00;30.20;73.40
4487;DHT22;2256;48.740;9.106;2022-08-25T12:15:33;30.30;73.30
4487;DHT22;2256;48.740;9.106;2022-08-25T12:18:08;30.30;72.00
4487;DHT22;2256;48.740;9.106;2022-08-25T12:23:42;30.50;70.60
4487;DHT22;2256;48.740;9.106;2022-08-25T12:26:16;30.30;72.10
4487;DHT22;2256;48.740;9.106;2022-08-25T12:28:55;29.90;71.80
4487;DHT22;2256;48.740;9.106;2022-08-25T12:31:45;29.90;73.10
4487;DHT22;2256;48.740;9.106;2022-08-25T12:34:35;30.30;72.50
4487;DHT22;2256;48.740;9.106;2022-08-25T12:37:11;30.60;70.80
4487;DHT22;2256;48.740;9.106;2022-08-25T12:39:44;30.40;71.60
4487;DHT22;2256;48.740;9.106;2022-08-25T12:42:21;30.40;72.70
4487;DHT22;2256;48.740;9.106;2022-08-25T12:45:10;30.50;72.60
4487;DHT22;2256;48.740;9.106;2022-08-25T12:47:39;30.50;71.60
4487;DHT22;2256;48.740;9.106;2022-08-25T12:50:30;30.40;71.60
4487;DHT22;2256;48.740;9.106;2022-08-25T12:53:08;30.60;69.70
4487;DHT22;2256;48.740;9.106;2022-08-25T12:55:38;30.80;70.00
4487;DHT22;2256;48.740;9.106;2022-08-25T12:58:05;30.80;69.50
4487;DHT22;2256;48.740;9.106;2022-08-25T13:00:47;30.40;69.70
4487;DHT22;2256;48.740;9.106;2022-08-25T13:03:31;29.90;71.40
4487;DHT22;2256;48.740;9.106;2022-08-25T13:06:26;29.80;72.20
4487;DHT22;2256;48.740;9.106;2022-08-25T13:12:06;30.00;72.40
4487;DHT22;2256;48.740;9.106;2022-08-25T13:14:37;30.40;72.00
4487;DHT22;2256;48.740;9.106;2022-08-25T13:17:06;30.60;68.50
4487;DHT22;2256;48.740;9.106;2022-08-25T13:19:34;30.80;68.30
4487;DHT22;2256;48.740;9.106;2022-08-25T13:22:09;30.80;68.10
4487;DHT22;2256;48.740;9.106;2022-08-25T13:24:39;30.90;69.10
4487;DHT22;2256;48.740;9.106;2022-08-25T13:27:09;31.10;67.60
4487;DHT22;2256;48.740;9.106;2022-08-25T13:29:49;31.00;67.70
4487;DHT22;2256;48.740;9.106;2022-08-25T13:32:25;30.80;66.30
4487;DHT22;2256;48.740;9.106;2022-08-25T13:35:06;30.70;68.40
4487;DHT22;2256;48.740;9.106;2022-08-25T13:37:34;30.70;68.40
4487;DHT22;2256;48.740;9.106;2022-08-25T13:40:09;30.30;69.10
4487;DHT22;2256;48.740;9.106;2022-08-25T13:42:37;29.90;70.20
4487;DHT22;2256;48.740;9.106;2022-08-25T13:45:06;30.10;70.00
4487;DHT22;2256;48.740;9.106;2022-08-25T13:47:36;30.30;70.90
4487;DHT22;2256;48.740;9.106;2022-08-25T13:50:15;30.60;70.20
4487;DHT22;2256;48.740;9.106;2022-08-25T13:52:46;31.00;69.10
4487;DHT22;2256;48.740;9.106;2022-08-25T13:55:19;31.00;68.60
4487;DHT22;2256;48.740;9.106;2022-08-25T13:57:46;30.90;69.70
4487;DHT22;2256;48.740;9.106;2022-08-25T14:00:25;31.10;69.50
4487;DHT22;2256;48.740;9.106;2022-08-25T14:02:54;31.40;69.10
4487;DHT22;2256;48.740;9.106;2022-08-25T14:05:34;31.60;68.60
4487;DHT22;2256;48.740;9.106;2022-08-25T14:08:02;32.00;67.60
4487;DHT22;2256;48.740;9.106;2022-08-25T14:10:33;32.20;67.10
4487;DHT22;2256;48.740;9.106;2022-08-25T14:13:10;32.40;66.50
4487;DHT22;2256;48.740;9.106;2022-08-25T14:15:37;32.60;64.30
4487;DHT22;2256;48.740;9.106;2022-08-25T14:18:08;32.50;64.60
4487;DHT22;2256;48.740;9.106;2022-08-25T14:20:36;32.70;66.40
4487;DHT22;2256;48.740;9.106;2022-08-25T14:23:12;32.80;65.40
4487;DHT22;2256;48.740;9.106;2022-08-25T14:25:40;33.00;65.30
4487;DHT22;2256;48.740;9.106;2022-08-25T14:28:10;33.20;64.60
4487;DHT22;2256;48.740;9.106;2022-08-25T14:30:41;33.40;64.40
4487;DHT22;2256;48.740;9.106;2022-08-25T14:33:10;33.40;64.40
4487;DHT22;2256;48.740;9.106;2022-08-25T14:35:37;33.20;64.00
4487;DHT22;2256;48.740;9.106;2022-08-25T14:38:08;32.50;64.90
4487;DHT22;2256;48.740;9.106;2022-08-25T14:40:35;32.10;65.90
4487;DHT22;2256;48.740;9.106;2022-08-25T14:43:03;32.00;66.00
4487;DHT22;2256;48.740;9.106;2022-08-25T14:45:30;32.00;65.90
4487;DHT22;2256;48.740;9.106;2022-08-25T14:48:02;32.00;66.00
4487;DHT22;2256;48.740;9.106;2022-08-25T14:50:31;32.00;65.40
4487;DHT22;2256;48.740;9.106;2022-08-25T14:52:59;31.80;65.60
4487;DHT22;2256;48.740;9.106;2022-08-25T14:55:26;31.70;66.10
4487;DHT22;2256;48.740;9.106;2022-08-25T14:57:53;31.70;66.30
4487;DHT22;2256;48.740;9.106;2022-08-25T15:00:20;31.80;67.00
4487;DHT22;2256;48.740;9.106;2022-08-25T15:02:48;31.80;66.70
4487;DHT22;2256;48.740;9.106;2022-08-25T15:05:20;32.00;66.70
4487;DHT22;2256;48.740;9.106;2022-08-25T15:07:50;32.20;66.40
4487;DHT22;2256;48.740;9.106;2022-08-25T15:10:35;32.30;65.80
4487;DHT22;2256;48.740;9.106;2022-08-25T15:13:02;32.50;65.80
4487;DHT22;2256;48.740;9.106;2022-08-25T15:15:30;32.60;64.70
4487;DHT22;2256;48.740;9.106;2022-08-25T15:17:57;32.70;64.30
4487;DHT22;2256;48.740;9.106;2022-08-25T15:20:25;32.60;63.50
4487;DHT22;2256;48.740;9.106;2022-08-25T15:22:53;32.50;63.70
4487;DHT22;2256;48.740;9.106;2022-08-25T15:25:20;32.50;64.40
4487;DHT22;2256;48.740;9.106;2022-08-25T15:27:47;32.50;63.90
4487;DHT22;2256;48.740;9.106;2022-08-25T15:30:14;32.50;64.70
4487;DHT22;2256;48.740;9.106;2022-08-25T15:32:41;32.20;64.10
4487;DHT22;2256;48.740;9.106;2022-08-25T15:35:08;31.80;64.40
4487;DHT22;2256;48.740;9.106;2022-08-25T15:37:36;31.70;65.50
4487;DHT22;2256;48.740;9.106;2022-08-25T15:40:05;31.90;63.90
4487;DHT22;2256;48.740;9.106;2022-08-25T15:42:32;32.00;64.50
4487;DHT22;2256;48.740;9.106;2022-08-25T15:44:59;32.10;64.40
4487;DHT22;2256;48.740;9.106;2022-08-25T15:47:25;32.20;64.30
4487;DHT22;2256;48.740;9.106;2022-08-25T15:50:02;32.40;64.00
4487;DHT22;2256;48.740;9.106;2022-08-25T15:52:29;32.30;65.80
4487;DHT22;2256;48.740;9.106;2022-08-25T15:54:56;32.00;66.20
4487;DHT22;2256;48.740;9.106;2022-08-25T15:57:24;31.50;67.50
4487;DHT22;2256;48.740;9.106;2022-08-25T15:59:51;31.40;68.00
4487;DHT22;2256;48.740;9.106;2022-08-25T16:02:20;31.30;68.90
4487;DHT22;2256;48.740;9.106;2022-08-25T16:04:47;31.10;68.30
4487;DHT22;2256;48.740;9.106;2022-08-25T16:07:15;31.10;68.40
4487;DHT22;2256;48.740;9.106;2022-08-25T16:09:42;31.00;68.60
4487;DHT22;2256;48.740;9.106;2022-08-25T16:12:08;31.00;68.60
4487;DHT22;2256;48.740;9.106;2022-08-25T16:14:37;30.60;68.60
4487;DHT22;2256;48.740;9.106;2022-08-25T16:17:04;30.60;68.50
4487;DHT22;2256;48.740;9.106;2022-08-25T16:19:31;30.30;68.80
4487;DHT22;2256;48.740;9.106;2022-08-25T16:21:59;29.90;69.60
4487;DHT22;2256;48.740;9.106;2022-08-25T16:24:26;29.90;70.10
4487;DHT22;2256;48.740;9.106;2022-08-25T16:26:53;29.90;70.00
4487;DHT22;2256;48.740;9.106;2022-08-25T16:29:28;29.80;69.90
4487;DHT22;2256;48.740;9.106;2022-08-25T16:31:57;29.70;69.80
4487;DHT22;2256;48.740;9.106;2022-08-25T16:34:25;29.60;69.70
4487;DHT22;2256;48.740;9.106;2022-08-25T16:36:52;29.50;70.50
4487;DHT22;2256;48.740;9.106;2022-08-25T16:39:19;29.50;70.90